Time;durP1;ratioP1;P1;durP2;ratioP2;P2;SDS_P1;SDS_P2;PMS_P1;PMS_P2;Temp;Humidity;BMP_temperature;BMP_pressure;BME280_temperature;BME280_humidity;BME280_pressure;Samples;Min_cycle;Max_cycle;Signal;HPM_P1;HPM_P2
2022/06/04 06:53:44;;;;;;;5.97;5.57;;;24.00;96.50;;;;;;5008544;27;20613;-71
2022/06/04 06:59:32;;;;;;;7.95;5.93;;;22.80;99.90;;;;;;5008095;28;20578;-72
2022/06/04 07:01:59;;;;;;;6.75;6.15;;;22.30;99.90;;;;;;5006843;28;20176;-72
2022/06/04 07:04:28;;;;;;;5.95;5.40;;;21.90;99.90;;;;;;5004528;28;20207;-72
2022/06/04 07:06:57;;;;;;;5.63;5.05;;;21.80;99.90;;;;;;5006528;28;20164;-78
2022/06/04 07:09:28;;;;;;;6.10;5.15;;;21.80;99.90;;;;;;5007266;28;20179;-72
2022/06/04 07:11:54;;;;;;;9.55;5.10;;;21.90;99.90;;;;;;5006164;28;20207;-72
2022/06/04 07:14:22;;;;;;;5.75;5.07;;;21.70;99.90;;;;;;5005837;28;20203;-72
2022/06/04 07:16:48;;;;;;;5.88;5.47;;;21.70;99.90;;;;;;5005480;28;20176;-72
2022/06/04 07:19:19;;;;;;;5.35;4.85;;;21.70;99.90;;;;;;5006114;28;20187;-72
2022/06/04 07:21:45;;;;;;;5.70;5.03;;;21.90;99.90;;;;;;5008159;28;20164;-72
2022/06/04 07:24:11;;;;;;;6.93;4.80;;;22.10;99.90;;;;;;5006091;28;20219;-71
2022/06/04 07:26:38;;;;;;;6.35;5.85;;;22.40;99.90;;;;;;5006326;28;20217;-71
2022/06/04 07:29:04;;;;;;;6.25;5.50;;;22.40;99.90;;;;;;5005977;28;20658;-71
2022/06/04 07:31:31;;;;;;;8.27;5.60;;;22.50;99.90;;;;;;5007357;28;20176;-72
2022/06/04 07:33:58;;;;;;;6.40;5.90;;;22.40;99.90;;;;;;5007735;28;20204;-72
2022/06/04 07:36:27;;;;;;;6.47;5.88;;;22.10;99.90;;;;;;5006379;28;20186;-72
2022/06/04 07:38:52;;;;;;;6.63;6.07;;;21.90;99.90;;;;;;5006695;28;20172;-72
2022/06/04 07:41:21;;;;;;;6.45;5.95;;;21.80;99.90;;;;;;5007678;28;20332;-72
2022/06/04 07:43:48;;;;;;;5.32;4.93;;;21.70;99.90;;;;;;5006670;28;20242;-72
2022/06/04 07:46:15;;;;;;;6.40;5.90;;;21.90;99.90;;;;;;5007107;28;20258;-72
2022/06/04 07:48:40;;;;;;;5.85;5.25;;;22.00;99.90;;;;;;5007620;28;20184;-72
2022/06/04 07:51:06;;;;;;;5.90;5.40;;;22.40;99.90;;;;;;5006733;28;20180;-72
2022/06/04 07:53:32;;;;;;;6.00;5.32;;;22.70;99.90;;;;;;5005930;28;20216;-72
2022/06/04 07:55:58;;;;;;;5.32;4.80;;;23.00;99.90;;;;;;5006092;28;20176;-74
2022/06/04 07:58:24;;;;;;;5.40;5.10;;;23.30;99.90;;;;;;5005872;28;20176;-74
2022/06/04 08:00:57;;;;;;;5.22;4.63;;;23.60;99.90;;;;;;5005902;28;20180;-74
2022/06/04 08:03:23;;;;;;;7.00;4.78;;;23.90;99.90;;;;;;5001749;28;20204;-72
2022/06/04 08:05:50;;;;;;;7.13;4.78;;;24.00;99.90;;;;;;4993835;28;20584;-74
2022/06/04 08:08:16;;;;;;;5.63;4.90;;;24.20;99.90;;;;;;4992405;28;20651;-74
2022/06/04 08:10:46;;;;;;;6.70;4.75;;;24.20;99.50;;;;;;4992337;28;20176;-74
2022/06/04 08:13:19;;;;;;;5.80;5.05;;;24.20;99.90;;;;;;4993055;28;20200;-73
2022/06/04 08:15:44;;;;;;;6.78;6.18;;;24.30;97.60;;;;;;4993760;28;20629;-72
2022/06/04 08:18:11;;;;;;;16.55;12.38;;;24.50;96.70;;;;;;4993407;28;20263;-72
2022/06/04 08:20:41;;;;;;;7.93;6.60;;;24.70;95.90;;;;;;4992209;28;20618;-72
2022/06/04 08:23:08;;;;;;;5.00;4.60;;;24.40;95.90;;;;;;4993196;28;20173;-72
2022/06/04 08:25:38;;;;;;;6.25;5.30;;;24.40;96.50;;;;;;4992180;28;20666;-72
2022/06/04 08:28:04;;;;;;;7.47;5.13;;;24.60;95.50;;;;;;4992166;28;20184;-72
2022/06/04 08:30:29;;;;;;;5.35;4.13;;;25.00;97.20;;;;;;4992883;28;20233;-72
2022/06/04 08:32:55;;;;;;;4.22;3.92;;;25.20;94.30;;;;;;4992244;28;20228;-73
2022/06/04 08:35:20;;;;;;;7.90;4.07;;;25.10;92.90;;;;;;4993392;28;20321;-72
2022/06/04 08:37:46;;;;;;;5.28;3.83;;;25.00;94.10;;;;;;4992014;28;20195;-72
2022/06/04 08:40:32;;;;;;;7.07;3.83;;;25.30;93.40;;;;;;4993019;28;20683;-74
2022/06/04 08:43:16;;;;;;;8.43;3.92;;;25.20;91.30;;;;;;4993064;28;20200;-73
2022/06/04 08:45:41;;;;;;;4.20;3.80;;;25.20;91.50;;;;;;4991767;28;20207;-73
2022/06/04 08:48:19;;;;;;;5.07;3.90;;;25.30;91.80;;;;;;4991877;28;20640;-72
2022/06/04 08:50:45;;;;;;;5.45;3.55;;;25.40;91.90;;;;;;4992670;28;20267;-72
2022/06/04 08:53:18;;;;;;;5.20;3.83;;;25.40;92.50;;;;;;4993170;28;20200;-72
2022/06/04 08:59:03;;;;;;;3.80;3.55;;;25.70;91.20;;;;;;4993132;28;20692;-73
2022/06/04 09:01:40;;;;;;;4.25;3.47;;;25.50;90.80;;;;;;4993081;28;20169;-73
2022/06/04 09:04:32;;;;;;;3.72;3.50;;;25.20;90.20;;;;;;4991640;28;20236;-73
2022/06/04 09:07:40;;;;;;;3.78;3.47;;;25.10;91.20;;;;;;4991594;28;20555;-73
2022/06/04 09:10:18;;;;;;;3.70;3.42;;;24.90;90.50;;;;;;4991452;28;20628;-73
2022/06/04 09:12:49;;;;;;;3.92;3.20;;;24.90;91.10;;;;;;4992804;28;20815;-74
2022/06/04 09:15:20;;;;;;;3.45;3.10;;;25.20;90.10;;;;;;4990256;28;20242;-73
2022/06/04 09:17:50;;;;;;;4.45;3.20;;;25.40;90.10;;;;;;4991698;28;20176;-74
2022/06/04 09:20:16;;;;;;;3.50;3.20;;;25.40;89.20;;;;;;4991433;28;20245;-74
2022/06/04 09:23:38;;;;;;;3.90;3.35;;;25.30;89.30;;;;;;4992180;28;20176;-74
2022/06/04 09:29:33;;;;;;;4.15;3.05;;;24.70;88.80;;;;;;5053228;28;20216;-74
2022/06/04 09:32:44;;;;;;;3.97;3.60;;;24.70;90.00;;;;;;5037055;28;20209;-73
2022/06/04 09:35:15;;;;;;;3.40;3.15;;;24.70;90.80;;;;;;4967095;28;20290;-72
2022/06/04 09:37:43;;;;;;;3.25;3.05;;;25.10;90.20;;;;;;4992917;28;20244;-72
2022/06/04 09:40:20;;;;;;;3.63;3.33;;;25.20;89.60;;;;;;4992256;28;20177;-72
2022/06/04 09:42:46;;;;;;;3.33;2.97;;;25.30;89.20;;;;;;4992931;28;20172;-72
2022/06/04 09:45:26;;;;;;;4.40;2.85;;;25.50;89.90;;;;;;4992913;28;20222;-71
2022/06/04 09:47:55;;;;;;;3.10;2.90;;;25.80;87.60;;;;;;4991147;28;20258;-72
2022/06/04 09:50:37;;;;;;;2.92;2.72;;;25.70;86.40;;;;;;4990983;28;20176;-72
2022/06/04 09:53:23;;;;;;;4.03;2.90;;;26.00;87.50;;;;;;4992096;28;20238;-77
2022/06/04 09:55:58;;;;;;;3.03;2.72;;;26.10;84.60;;;;;;4992579;28;20169;-72
2022/06/04 09:58:32;;;;;;;7.85;3.10;;;25.90;84.40;;;;;;4992187;28;20527;-72
2022/06/04 10:01:01;;;;;;;7.93;2.85;;;25.90;84.20;;;;;;4991768;28;20237;-72
2022/06/04 10:03:29;;;;;;;4.72;3.08;;;26.40;84.20;;;;;;5000360;28;20204;-72
2022/06/04 10:06:09;;;;;;;6.80;2.88;;;26.60;80.20;;;;;;5002045;28;20191;-74
2022/06/04 10:11:32;;;;;;;3.00;2.80;;;26.70;79.10;;;;;;5004606;28;20168;-72
2022/06/04 10:13:59;;;;;;;3.05;2.85;;;26.70;77.60;;;;;;5003688;28;20200;-72
2022/06/04 10:16:45;;;;;;;3.00;2.85;;;26.60;78.90;;;;;;5004008;28;20183;-72
2022/06/04 10:19:22;;;;;;;10.15;2.40;;;26.80;74.80;;;;;;5004306;28;20172;-72
2022/06/04 10:22:08;;;;;;;8.15;2.78;;;26.80;73.50;;;;;;5004400;28;20251;-71
2022/06/04 10:24:48;;;;;;;5.07;2.65;;;26.80;75.20;;;;;;5009809;28;20234;-72
2022/06/04 10:27:39;;;;;;;9.00;3.22;;;26.90;75.80;;;;;;5001700;28;20176;-73
2022/06/04 10:30:13;;;;;;;4.95;2.60;;;27.10;73.50;;;;;;5002206;28;20624;-73
2022/06/04 10:32:57;;;;;;;4.25;2.40;;;27.30;71.90;;;;;;5002068;28;20180;-73
2022/06/04 10:35:45;;;;;;;4.47;2.58;;;27.30;71.30;;;;;;5002824;28;20196;-72
2022/06/04 10:38:30;;;;;;;3.95;2.80;;;27.40;71.50;;;;;;5002751;28;20643;-73
2022/06/04 10:41:14;;;;;;;3.80;2.60;;;27.50;71.90;;;;;;5003454;28;20190;-72
2022/06/04 10:43:58;;;;;;;11.32;3.05;;;27.60;70.40;;;;;;5002931;28;20212;-72
2022/06/04 10:46:40;;;;;;;4.28;2.67;;;27.50;70.10;;;;;;5002077;28;20230;-72
2022/06/04 10:49:11;;;;;;;2.90;2.70;;;27.20;71.00;;;;;;4991968;28;20263;-73
2022/06/04 10:52:22;;;;;;;4.78;3.00;;;27.10;70.70;;;;;;4990337;28;20200;-73
2022/06/04 10:55:25;;;;;;;3.67;3.38;;;27.00;72.40;;;;;;4991066;28;20282;-73
2022/06/04 10:58:06;;;;;;;5.45;3.45;;;26.90;73.10;;;;;;4991464;28;20156;-72
2022/06/04 11:00:40;;;;;;;6.85;3.30;;;26.70;76.40;;;;;;4990996;28;20187;-73
2022/06/04 11:03:14;;;;;;;6.07;3.45;;;26.70;77.10;;;;;;4989662;28;20728;-71
2022/06/04 11:05:45;;;;;;;3.72;3.38;;;26.50;77.30;;;;;;4990143;28;20656;-71
2022/06/04 11:08:26;;;;;;;4.03;3.50;;;26.50;77.50;;;;;;4989620;28;20251;-71
2022/06/04 11:10:55;;;;;;;3.53;3.25;;;26.30;77.70;;;;;;4989926;28;20176;-71
2022/06/04 11:13:23;;;;;;;3.90;3.60;;;26.10;78.30;;;;;;4989710;28;20207;-71
2022/06/04 11:16:35;;;;;;;3.88;3.47;;;26.20;79.10;;;;;;4989726;28;20250;-71
2022/06/04 11:19:10;;;;;;;3.55;3.15;;;26.30;79.50;;;;;;5034320;28;20586;-72
2022/06/04 11:21:41;;;;;;;4.25;3.40;;;26.50;75.80;;;;;;4995833;28;20208;-72
2022/06/04 11:24:16;;;;;;;6.68;5.60;;;26.50;76.60;;;;;;4989522;28;20207;-72
2022/06/04 11:27:13;;;;;;;4.78;3.88;;;26.60;75.90;;;;;;4991127;28;20217;-72
2022/06/04 11:29:40;;;;;;;3.80;3.50;;;26.70;74.50;;;;;;5003809;28;20609;-72
2022/06/04 11:32:22;;;;;;;4.03;3.63;;;26.70;73.80;;;;;;4990838;28;20203;-73
2022/06/04 11:35:04;;;;;;;3.70;3.50;;;26.90;73.40;;;;;;4989517;28;20694;-73
2022/06/04 11:37:35;;;;;;;3.30;3.10;;;26.90;73.00;;;;;;4989514;28;20624;-71
2022/06/04 11:40:15;;;;;;;3.95;3.20;;;26.90;73.20;;;;;;4992097;28;20169;-71
2022/06/04 11:43:05;;;;;;;3.75;3.40;;;26.90;73.30;;;;;;4993294;28;20210;-71
2022/06/04 11:46:02;;;;;;;3.83;3.30;;;26.70;73.00;;;;;;4992774;28;20169;-72
2022/06/04 11:48:57;;;;;;;3.70;3.40;;;26.50;74.30;;;;;;4992764;28;20624;-72
2022/06/04 11:51:43;;;;;;;3.72;3.42;;;26.70;74.00;;;;;;4996570;28;20325;-74
2022/06/04 11:54:54;;;;;;;4.00;3.63;;;26.60;74.90;;;;;;4992495;28;20287;-76
2022/06/04 11:58:03;;;;;;;3.83;3.50;;;26.70;74.00;;;;;;5008890;28;20199;-73
2022/06/04 12:00:48;;;;;;;4.57;3.70;;;27.10;74.00;;;;;;4992488;28;20165;-73
2022/06/04 12:03:33;;;;;;;4.65;4.25;;;27.00;73.20;;;;;;4992402;28;20196;-73
2022/06/04 12:06:16;;;;;;;4.70;3.90;;;26.70;72.70;;;;;;4992569;28;20275;-72
2022/06/04 12:08:58;;;;;;;3.55;3.28;;;26.50;73.60;;;;;;4992464;28;20195;-72
2022/06/04 12:11:42;;;;;;;4.18;3.72;;;26.60;74.90;;;;;;4993147;28;20187;-71
2022/06/04 12:14:42;;;;;;;6.75;3.97;;;26.70;73.40;;;;;;4992865;28;20208;-71
2022/06/04 12:17:22;;;;;;;5.05;3.78;;;26.80;74.90;;;;;;4993560;28;20169;-71
2022/06/04 12:25:45;;;;;;;3.72;3.42;;;27.60;72.00;;;;;;4994070;28;20202;-72
2022/06/04 12:28:27;;;;;;;4.10;3.72;;;28.10;70.60;;;;;;4991846;28;20164;-72
2022/06/04 12:30:54;;;;;;;9.00;4.18;;;28.30;70.00;;;;;;4993068;28;20165;-76
2022/06/04 12:33:36;;;;;;;4.03;3.70;;;28.00;69.70;;;;;;4992694;28;20180;-73
2022/06/04 12:36:05;;;;;;;3.70;3.40;;;27.70;70.20;;;;;;4993023;28;20251;-72
2022/06/04 12:38:39;;;;;;;3.90;3.50;;;27.80;71.10;;;;;;4992180;28;20210;-72
2022/06/04 12:41:17;;;;;;;3.85;3.45;;;27.70;71.90;;;;;;4992089;28;20172;-71
2022/06/04 12:43:57;;;;;;;3.50;3.20;;;27.70;70.70;;;;;;4992011;28;20219;-72
2022/06/04 12:46:23;;;;;;;3.20;2.95;;;27.50;70.80;;;;;;4992661;28;20551;-73
2022/06/04 12:49:14;;;;;;;3.72;3.42;;;27.20;71.40;;;;;;4991825;28;20233;-73
2022/06/04 12:51:51;;;;;;;4.07;3.67;;;26.80;73.00;;;;;;4991680;28;20203;-73
2022/06/04 12:54:16;;;;;;;4.13;3.90;;;26.50;75.10;;;;;;4992552;28;20247;-79
2022/06/04 12:56:42;;;;;;;3.95;3.60;;;26.20;75.20;;;;;;4992561;28;20631;-74
2022/06/04 12:59:37;;;;;;;4.03;3.33;;;25.90;77.10;;;;;;4991940;28;20310;-74
2022/06/04 13:02:23;;;;;;;4.00;3.70;;;25.80;79.30;;;;;;4991513;28;20207;-74
2022/06/04 13:04:49;;;;;;;5.95;4.45;;;25.60;80.90;;;;;;4991551;28;20285;-72
2022/06/04 13:07:24;;;;;;;7.22;4.57;;;25.20;84.80;;;;;;4992950;28;20632;-72
2022/06/04 13:10:18;;;;;;;7.00;4.70;;;25.20;90.00;;;;;;4993354;28;20172;-72
2022/06/04 13:12:59;;;;;;;6.35;4.47;;;25.30;90.70;;;;;;5015815;28;20200;-72
2022/06/04 13:15:40;;;;;;;9.45;4.50;;;25.30;91.70;;;;;;4991943;28;20686;-72
2022/06/04 13:18:20;;;;;;;6.93;5.15;;;25.40;90.90;;;;;;4992786;28;20157;-72
2022/06/04 13:20:59;;;;;;;10.27;5.00;;;25.40;91.50;;;;;;4991378;28;20168;-72
2022/06/04 13:23:34;;;;;;;6.88;4.80;;;25.30;92.30;;;;;;4992850;28;20290;-72
2022/06/04 13:26:21;;;;;;;8.00;4.40;;;25.30;94.20;;;;;;4992006;28;20172;-72
2022/06/04 13:28:49;;;;;;;4.80;4.40;;;25.40;91.80;;;;;;4991251;28;20191;-72
2022/06/04 13:31:30;;;;;;;11.23;5.80;;;25.40;92.10;;;;;;4991187;28;20670;-72
2022/06/04 13:34:13;;;;;;;12.82;7.22;;;25.50;92.20;;;;;;4991048;28;20196;-72
2022/06/04 13:36:39;;;;;;;36.60;25.83;;;25.70;92.50;;;;;;4991122;28;20168;-72
2022/06/04 13:39:13;;;;;;;20.98;14.57;;;25.60;92.40;;;;;;4992435;28;20585;-72
2022/06/04 13:44:30;;;;;;;19.05;10.18;;;24.80;93.10;;;;;;4992599;28;20203;-71
2022/06/04 13:47:15;;;;;;;6.50;5.90;;;25.00;93.50;;;;;;4992734;28;20160;-72
2022/06/04 13:49:42;;;;;;;5.45;4.95;;;25.10;90.60;;;;;;4991700;28;20572;-73
2022/06/04 13:52:21;;;;;;;4.85;4.45;;;25.20;88.60;;;;;;4990787;28;20200;-72
2022/06/04 13:54:53;;;;;;;5.78;4.40;;;25.20;84.90;;;;;;4991910;28;20196;-71
2022/06/04 13:57:55;;;;;;;5.00;4.43;;;25.20;82.80;;;;;;4990740;28;20172;-71
2022/06/04 14:00:31;;;;;;;7.75;4.20;;;25.10;83.30;;;;;;4999598;28;20188;-71
2022/06/04 14:03:19;;;;;;;5.95;4.03;;;24.90;87.20;;;;;;4990879;28;20541;-71
2022/06/04 14:05:47;;;;;;;13.07;4.38;;;24.90;89.90;;;;;;4990686;28;20164;-71
2022/06/04 14:08:16;;;;;;;5.85;3.97;;;25.30;91.20;;;;;;4991505;28;20203;-71
2022/06/04 14:11:00;;;;;;;4.15;3.85;;;25.60;90.80;;;;;;4992003;28;20176;-71
2022/06/04 14:13:35;;;;;;;4.93;4.30;;;26.00;90.50;;;;;;4990441;28;20212;-71
2022/06/04 14:16:04;;;;;;;8.77;4.20;;;26.30;91.30;;;;;;4990811;28;20172;-71
2022/06/04 14:18:55;;;;;;;7.22;4.28;;;26.20;90.40;;;;;;4990371;28;20191;-71
2022/06/04 14:21:54;;;;;;;7.72;4.50;;;26.20;90.10;;;;;;4990691;28;20275;-71
2022/06/04 14:24:42;;;;;;;4.47;4.07;;;26.20;90.30;;;;;;4991724;28;20197;-71
2022/06/04 14:27:37;;;;;;;4.43;3.90;;;26.50;90.00;;;;;;4992151;28;20207;-71
2022/06/04 14:30:43;;;;;;;16.35;4.80;;;26.60;87.30;;;;;;4990547;28;20263;-71
2022/06/04 14:33:23;;;;;;;4.25;3.90;;;26.80;87.80;;;;;;4990262;28;20658;-71
2022/06/04 14:36:05;;;;;;;7.95;4.45;;;26.90;84.30;;;;;;4991694;28;20643;-70
2022/06/04 14:38:50;;;;;;;5.15;3.92;;;26.80;82.20;;;;;;4991757;28;20556;-70
2022/06/04 14:41:19;;;;;;;5.35;4.28;;;26.40;79.90;;;;;;4991747;28;20517;-72
2022/06/04 14:44:00;;;;;;;5.32;3.78;;;26.10;81.20;;;;;;4990066;28;20268;-72
2022/06/04 14:46:47;;;;;;;5.45;4.05;;;25.90;80.20;;;;;;4991634;28;20156;-72
2022/06/04 14:49:31;;;;;;;6.03;3.85;;;25.90;80.20;;;;;;4990970;28;20191;-74
2022/06/04 14:52:21;;;;;;;4.10;3.80;;;25.90;80.40;;;;;;4990054;28;20187;-73
2022/06/04 14:54:49;;;;;;;4.13;3.83;;;25.90;80.60;;;;;;4990385;28;20230;-73
2022/06/04 14:57:39;;;;;;;4.38;3.97;;;25.70;80.50;;;;;;4991137;28;20259;-73
2022/06/04 15:00:28;;;;;;;6.38;3.92;;;25.60;78.50;;;;;;4989917;28;20165;-72
2022/06/04 15:03:30;;;;;;;6.95;3.95;;;25.60;81.10;;;;;;4991287;28;20196;-73
2022/06/04 15:06:01;;;;;;;4.20;3.90;;;25.50;79.70;;;;;;4990760;28;20164;-72
2022/06/04 15:08:40;;;;;;;4.28;3.88;;;25.30;79.60;;;;;;4990159;28;20176;-72
2022/06/04 15:11:24;;;;;;;5.05;4.72;;;25.20;79.30;;;;;;4990358;28;20188;-72
2022/06/04 15:14:01;;;;;;;4.22;3.83;;;25.10;78.90;;;;;;4989960;28;20212;-72
2022/06/04 15:16:55;;;;;;;6.32;3.90;;;25.00;80.80;;;;;;4993213;28;20200;-72
2022/06/04 15:19:48;;;;;;;4.43;3.75;;;25.00;80.50;;;;;;4994390;28;20183;-72
2022/06/04 15:22:50;;;;;;;4.20;3.90;;;24.90;79.50;;;;;;4993125;28;20195;-72
2022/06/04 15:25:37;;;;;;;4.90;3.95;;;24.90;82.30;;;;;;4993061;28;20201;-72
2022/06/04 15:33:52;;;;;;;4.53;3.90;;;24.90;83.00;;;;;;4993111;28;20196;-72
2022/06/04 15:34:19;;;;;;;5.43;4.32;;;24.80;82.20;;;;;;4993928;28;20214;-72
2022/06/04 15:37:07;;;;;;;4.30;4.00;;;24.70;83.30;;;;;;4993387;28;20330;-72
2022/06/04 15:39:38;;;;;;;4.65;4.25;;;24.70;83.30;;;;;;4992791;28;20211;-72
2022/06/04 15:42:45;;;;;;;5.38;4.10;;;24.70;83.50;;;;;;4992823;28;20303;-72
2022/06/04 15:46:01;;;;;;;4.18;3.88;;;24.70;84.00;;;;;;4992637;28;20192;-72
2022/06/04 15:48:45;;;;;;;4.35;3.97;;;24.70;85.00;;;;;;4992702;28;20492;-72
2022/06/04 15:57:28;;;;;;;6.05;4.20;;;24.60;85.20;;;;;;4994309;28;20587;-72
2022/06/04 16:00:12;;;;;;;4.70;4.10;;;24.70;85.20;;;;;;4992809;28;20203;-72
2022/06/04 16:02:38;;;;;;;4.13;3.70;;;24.90;83.20;;;;;;4993315;28;20582;-72
2022/06/04 16:05:15;;;;;;;6.63;3.92;;;25.00;83.40;;;;;;4992335;28;20566;-72
2022/06/04 16:07:49;;;;;;;8.18;3.65;;;25.30;83.20;;;;;;4993634;28;20149;-72
2022/06/04 16:10:28;;;;;;;4.07;3.78;;;25.50;81.40;;;;;;4992592;28;20176;-72
2022/06/04 16:13:17;;;;;;;4.20;3.90;;;25.70;81.50;;;;;;4993840;28;20179;-72
2022/06/04 16:15:58;;;;;;;4.57;4.22;;;25.90;80.90;;;;;;4992876;28;20184;-72
2022/06/04 16:18:42;;;;;;;3.95;3.65;;;26.10;80.60;;;;;;4994234;28;20203;-72
2022/06/04 16:21:23;;;;;;;5.35;3.80;;;26.00;79.10;;;;;;4992779;28;20276;-72
2022/06/04 16:24:07;;;;;;;4.75;3.90;;;25.70;78.30;;;;;;4992083;28;20299;-72
2022/06/04 16:26:35;;;;;;;4.28;3.88;;;25.20;79.30;;;;;;4992866;28;20183;-72
2022/06/04 16:29:16;;;;;;;4.13;3.78;;;24.80;81.00;;;;;;4993004;28;20571;-72
2022/06/04 16:31:46;;;;;;;4.18;3.85;;;24.50;82.10;;;;;;4993402;28;20176;-72
2022/06/04 16:34:12;;;;;;;4.32;4.00;;;24.40;82.50;;;;;;4991985;28;20196;-72
2022/06/04 16:36:47;;;;;;;4.38;4.07;;;24.30;82.50;;;;;;4992090;28;20187;-72
2022/06/04 16:39:17;;;;;;;3.90;3.60;;;24.20;83.10;;;;;;4993955;28;20179;-72
2022/06/04 16:42:17;;;;;;;4.60;4.20;;;24.20;83.20;;;;;;4992349;28;20662;-73
2022/06/04 16:44:46;;;;;;;4.05;3.70;;;24.30;84.70;;;;;;5003100;28;20208;-73
2022/06/04 16:47:23;;;;;;;5.10;4.10;;;24.30;83.60;;;;;;4992027;28;20646;-72
2022/06/04 16:49:49;;;;;;;4.45;4.00;;;24.40;83.70;;;;;;4992160;28;20182;-72
2022/06/04 16:52:21;;;;;;;5.53;4.10;;;24.20;82.80;;;;;;4991737;28;20176;-71
2022/06/04 16:54:50;;;;;;;5.30;4.38;;;24.10;84.10;;;;;;4993175;28;20216;-71
2022/06/04 16:57:15;;;;;;;6.00;3.97;;;23.90;85.10;;;;;;4993030;28;20520;-72
2022/06/04 16:59:43;;;;;;;4.32;4.03;;;23.80;86.50;;;;;;4992570;28;20230;-73
2022/06/04 17:02:34;;;;;;;4.35;3.97;;;23.70;87.60;;;;;;4991625;28;20295;-74
2022/06/04 17:05:02;;;;;;;7.25;4.18;;;23.70;86.30;;;;;;4982380;28;20197;-71
2022/06/04 17:07:40;;;;;;;3.70;3.50;;;23.80;85.90;;;;;;4991725;28;20177;-72
2022/06/04 17:10:16;;;;;;;4.00;3.70;;;23.70;83.70;;;;;;4983397;28;20179;-72
2022/06/04 17:12:53;;;;;;;3.97;3.70;;;23.70;83.90;;;;;;4991549;28;20184;-76
2022/06/04 17:15:37;;;;;;;4.40;4.00;;;23.70;83.90;;;;;;4991780;28;20628;-77
2022/06/04 17:18:30;;;;;;;3.47;3.28;;;23.70;83.50;;;;;;4987617;28;20215;-71
2022/06/04 17:21:09;;;;;;;5.40;3.42;;;23.50;79.60;;;;;;4989094;28;20176;-72
2022/06/04 17:24:00;;;;;;;5.13;3.63;;;23.50;80.80;;;;;;4991869;28;20219;-72
2022/06/04 17:26:55;;;;;;;5.78;3.53;;;23.40;80.50;;;;;;5010896;28;20275;-72
2022/06/04 17:29:51;;;;;;;5.30;3.50;;;23.40;81.80;;;;;;4971837;28;20244;-72
2022/06/04 17:32:29;;;;;;;4.22;3.70;;;23.30;82.30;;;;;;4992031;28;20271;-72
2022/06/04 17:35:15;;;;;;;4.07;3.67;;;23.30;83.50;;;;;;4982789;28;20350;-73
2022/06/04 17:37:43;;;;;;;3.83;3.53;;;23.30;83.30;;;;;;4981492;28;20177;-71
2022/06/04 17:40:47;;;;;;;4.20;3.80;;;23.30;83.20;;;;;;4981319;28;20202;-72
2022/06/04 17:43:12;;;;;;;3.85;3.58;;;23.20;83.70;;;;;;4982078;28;20204;-71
2022/06/04 17:45:38;;;;;;;4.18;3.88;;;23.20;84.90;;;;;;4981336;28;20225;-71
2022/06/04 17:48:04;;;;;;;4.10;3.70;;;23.10;86.40;;;;;;4980711;28;20225;-71
2022/06/04 17:50:29;;;;;;;4.38;4.07;;;23.10;86.60;;;;;;4979354;28;20235;-72
2022/06/04 17:52:56;;;;;;;3.67;3.40;;;23.00;87.20;;;;;;4971434;28;20196;-72
2022/06/04 17:55:21;;;;;;;4.32;3.92;;;23.00;87.00;;;;;;4970219;28;20200;-72
2022/06/04 17:57:47;;;;;;;4.07;3.72;;;22.90;88.00;;;;;;4972343;28;20188;-72
2022/06/04 18:00:16;;;;;;;4.00;3.60;;;22.90;89.40;;;;;;4972202;28;20535;-72
2022/06/04 18:02:47;;;;;;;3.97;3.67;;;22.90;90.30;;;;;;4971183;28;20208;-72
2022/06/04 18:05:14;;;;;;;5.97;3.95;;;22.80;91.20;;;;;;4971987;28;20254;-72
2022/06/04 18:07:40;;;;;;;4.68;4.03;;;22.70;91.90;;;;;;4971201;28;20274;-72
2022/06/04 18:10:07;;;;;;;4.50;4.00;;;22.50;92.80;;;;;;4971544;28;20658;-72
2022/06/04 18:12:33;;;;;;;4.30;4.00;;;22.40;93.20;;;;;;4971105;28;20242;-72
2022/06/04 18:14:59;;;;;;;5.85;4.30;;;22.20;93.90;;;;;;4971880;28;20226;-72
2022/06/04 18:17:25;;;;;;;4.30;3.97;;;22.10;94.70;;;;;;4971325;28;20736;-72
2022/06/04 18:19:57;;;;;;;4.00;3.70;;;21.90;94.90;;;;;;4972219;28;20193;-72
2022/06/04 18:22:24;;;;;;;4.30;3.90;;;21.80;95.60;;;;;;4972077;28;20204;-72
2022/06/04 18:24:49;;;;;;;4.20;3.90;;;21.80;96.10;;;;;;4972097;28;20275;-72
2022/06/04 18:27:15;;;;;;;4.57;4.15;;;21.70;96.80;;;;;;4971519;28;20273;-72
2022/06/04 18:29:40;;;;;;;4.30;4.00;;;21.60;97.40;;;;;;4971018;28;20184;-72
2022/06/04 18:32:09;;;;;;;4.00;3.80;;;21.50;98.00;;;;;;4972405;28;20537;-72
2022/06/04 18:34:34;;;;;;;4.30;3.80;;;21.50;98.70;;;;;;4970722;28;20205;-72
2022/06/04 18:37:01;;;;;;;4.72;4.00;;;21.40;99.60;;;;;;4971121;28;20177;-72
2022/06/04 18:39:27;;;;;;;5.00;4.30;;;21.40;99.90;;;;;;4970699;28;20605;-72
2022/06/04 18:41:53;;;;;;;4.88;4.03;;;21.30;99.90;;;;;;4971826;28;20261;-72
2022/06/04 18:55:15;;;;;;;5.47;4.20;;;21.00;99.90;;;;;;4971986;28;20582;-72
2022/06/04 18:57:41;;;;;;;5.03;4.22;;;20.80;99.90;;;;;;4971335;28;20181;-72
2022/06/04 19:00:08;;;;;;;5.03;4.20;;;20.70;99.90;;;;;;4970578;28;20181;-72
2022/06/04 19:02:36;;;;;;;4.30;4.00;;;20.70;99.90;;;;;;4970446;28;20209;-72
2022/06/04 19:05:05;;;;;;;7.30;4.28;;;20.60;99.90;;;;;;4971007;28;20201;-72
2022/06/04 19:13:37;;;;;;;5.07;4.65;;;20.40;99.90;;;;;;4971894;28;20560;-72
2022/06/04 19:15:47;;;;;;;5.13;4.72;;;20.30;99.90;;;;;;4971532;28;20616;-72
2022/06/04 19:18:13;;;;;;;5.00;4.55;;;20.20;99.90;;;;;;4970653;28;20177;-72
2022/06/04 19:26:11;;;;;;;6.05;4.32;;;19.90;99.90;;;;;;4972047;28;20165;-72
2022/06/04 19:28:36;;;;;;;7.65;4.82;;;19.90;99.90;;;;;;4971411;28;20170;-72
2022/06/04 19:31:02;;;;;;;5.03;4.63;;;19.80;99.90;;;;;;4971613;28;20196;-72
2022/06/04 19:33:28;;;;;;;5.45;4.22;;;19.70;99.90;;;;;;4970774;28;20296;-72
2022/06/04 19:35:53;;;;;;;4.88;4.47;;;19.70;99.90;;;;;;4971232;28;20193;-72
2022/06/04 19:38:19;;;;;;;7.32;4.80;;;19.60;99.90;;;;;;4970002;28;20181;-72
2022/06/04 19:40:44;;;;;;;4.65;4.30;;;19.60;99.90;;;;;;4970045;28;20192;-72
2022/06/04 19:43:10;;;;;;;4.90;4.40;;;19.60;99.90;;;;;;4969875;28;20580;-72
2022/06/04 19:45:35;;;;;;;4.53;4.10;;;19.50;99.90;;;;;;4971140;28;20177;-72
2022/06/04 19:48:01;;;;;;;5.32;4.25;;;19.50;99.90;;;;;;4970512;28;20181;-72
2022/06/04 19:50:27;;;;;;;7.60;4.90;;;19.40;99.90;;;;;;4970251;28;20619;-72
2022/06/04 19:55:37;;;;;;;6.03;4.70;;;19.30;99.90;;;;;;4971734;28;20169;-72
2022/06/04 19:58:03;;;;;;;6.85;4.80;;;19.30;99.90;;;;;;4969898;28;20177;-72
2022/06/04 20:00:28;;;;;;;5.45;4.50;;;19.20;99.90;;;;;;4972936;28;20188;-72
2022/06/04 20:02:54;;;;;;;5.00;4.53;;;19.10;99.90;;;;;;4974292;28;20201;-72
2022/06/04 20:05:20;;;;;;;5.20;4.43;;;19.10;99.90;;;;;;4973057;28;20197;-72
2022/06/04 20:07:46;;;;;;;5.15;4.70;;;19.00;99.90;;;;;;4974251;28;20173;-72
2022/06/04 20:10:12;;;;;;;5.88;4.88;;;18.90;99.90;;;;;;4973335;28;20245;-72
2022/06/04 20:12:38;;;;;;;7.97;4.82;;;18.90;99.90;;;;;;4972963;28;20663;-72
2022/06/04 20:15:08;;;;;;;8.43;5.00;;;18.80;99.90;;;;;;4972917;28;20573;-72
2022/06/04 20:17:34;;;;;;;5.13;4.72;;;18.70;99.90;;;;;;4973214;28;20181;-72
2022/06/04 20:20:00;;;;;;;5.70;5.18;;;18.70;99.90;;;;;;4974140;28;20188;-72
2022/06/04 20:22:26;;;;;;;5.38;4.97;;;18.60;99.90;;;;;;4973033;28;20201;-72
2022/06/04 20:24:51;;;;;;;6.43;4.72;;;18.50;99.90;;;;;;4972642;28;20192;-72
2022/06/04 20:27:18;;;;;;;6.15;4.65;;;18.50;99.90;;;;;;4973530;28;20204;-72
2022/06/04 20:29:45;;;;;;;5.20;4.68;;;18.40;99.90;;;;;;4973776;28;20207;-72
2022/06/04 20:32:12;;;;;;;7.22;5.10;;;18.40;99.90;;;;;;4972978;28;20185;-72
2022/06/04 20:34:38;;;;;;;5.28;4.80;;;18.30;99.90;;;;;;4974239;28;20547;-72
2022/06/04 20:37:05;;;;;;;6.35;4.90;;;18.30;99.90;;;;;;4972579;28;20212;-72
2022/06/04 20:39:31;;;;;;;5.28;4.85;;;18.30;99.90;;;;;;4972801;28;20594;-72
2022/06/04 20:41:57;;;;;;;7.07;4.85;;;18.30;99.90;;;;;;4973629;28;20185;-72
2022/06/04 20:44:23;;;;;;;6.82;5.28;;;18.30;99.90;;;;;;4972916;28;20265;-72
2022/06/04 20:46:49;;;;;;;7.85;5.97;;;18.30;99.90;;;;;;4972487;28;20181;-72
2022/06/04 20:49:15;;;;;;;6.72;5.38;;;18.20;99.90;;;;;;4972720;28;20234;-72
2022/06/04 20:51:45;;;;;;;5.57;5.07;;;18.20;99.90;;;;;;4972466;28;20188;-72
2022/06/04 20:54:11;;;;;;;5.50;5.00;;;18.20;99.90;;;;;;4973417;28;20219;-70
2022/06/04 20:56:37;;;;;;;6.78;5.15;;;18.20;99.90;;;;;;4973507;28;20188;-70
2022/06/04 20:59:07;;;;;;;6.68;5.40;;;18.10;99.90;;;;;;4972647;28;20754;-70
2022/06/04 21:01:33;;;;;;;7.47;5.40;;;18.00;99.90;;;;;;4972506;28;20189;-70
2022/06/04 21:03:59;;;;;;;5.35;4.95;;;18.00;99.90;;;;;;4972466;28;20216;-70
2022/06/04 21:06:27;;;;;;;8.27;5.10;;;18.00;99.90;;;;;;4973546;28;20173;-70
2022/06/04 21:08:53;;;;;;;5.55;5.15;;;18.00;99.90;;;;;;4973304;28;20679;-70
2022/06/04 21:11:50;;;;;;;6.72;5.20;;;18.00;99.90;;;;;;4972366;28;20181;-71
2022/06/04 21:14:56;;;;;;;5.43;5.03;;;18.00;99.90;;;;;;4973374;28;20197;-72
2022/06/04 21:17:22;;;;;;;5.78;4.93;;;17.90;99.90;;;;;;4972214;28;20177;-72